Terminal Aerodrome Forecast
Issued by NWS

Home | Current Version | Previous Version | Text Only | Print | Product List | Glossary On
Versions: 1 2 3 4 5 6 7 8 9 10 11 12 13 14 15 16 17 18 19 20 21 22 23 24 25 26 27
000
FTUS41 KCAR 011800 AAA
TAFPQI
TAF AMD
KPQI 011812Z 0118/0218 20007KT P6SM SCT250
     FM011900 20007KT P6SM BKN250
     FM012300 20007KT P6SM BKN250
      TEMPO 0208/0211 1SM BR BKN002
     FM021700 21007KT P6SM BKN250
      AMD LTD TO CLD VIS AND WIND=

USA.gov is the U.S. government's official web portal to all federal, state and local government web resources and services.